Gainesville, Texas
Current Conditions -  °F | °C
As of 11:55 PM on Saturday 25 Oct 2014 (Local Time) from KGLE Reporting Station
Clear Clear  
Wind Chill: 68°   Ceiling: Unl
Heat Index: 68°   Visibility: 10mi
Dew Point: 59°   Wind: 3mph
Humidity: 74%   Direction: 130°SE
Pressure: 30.05"   Gusts: NA
Location:  33.62°N, 97.14°W
Report Text: KGLE 260455Z AUTO 13003KT 10SM CLR 20/15 A3005 RMK AO2 T02000152
Loading
Personal Weather Stations






























Interactive Weather Map
Tropical Storm Tracking
New forecast layout! Learn more

10-Day Weather Forecast

Advertisements
Track Severe Weather on mobile